sensor_id;sensor_type;location;lat;lon;timestamp;pressure;altitude;pressure_sealevel;temperature
69415;BMP280;56608;43.530;-5.652;2023-04-25T00:00:08;101375.81;;;18.43
69415;BMP280;56608;43.530;-5.652;2023-04-25T00:01:10;101383.03;;;18.46
69415;BMP280;56608;43.530;-5.652;2023-04-25T00:02:13;101375.16;;;18.48
69415;BMP280;56608;43.530;-5.652;2023-04-25T00:03:13;101375.16;;;18.48
69415;BMP280;56608;43.530;-5.652;2023-04-25T00:04:13;101372.69;;;18.51
69415;BMP280;56608;43.530;-5.652;2023-04-25T00:05:14;101375.16;;;18.48
69415;BMP280;56608;43.530;-5.652;2023-04-25T00:06:17;101374.88;;;18.46
69415;BMP280;56608;43.530;-5.652;2023-04-25T00:07:20;101376.09;;;18.45
69415;BMP280;56608;43.530;-5.652;2023-04-25T00:08:20;101374.12;;;18.46
69415;BMP280;56608;43.530;-5.652;2023-04-25T00:09:21;101373.38;;;18.45
69415;BMP280;56608;43.530;-5.652;2023-04-25T00:10:21;101369.91;;;18.45
69415;BMP280;56608;43.530;-5.652;2023-04-25T00:11:22;101372.63;;;18.45
69415;BMP280;56608;43.530;-5.652;2023-04-25T00:12:22;101370.66;;;18.45
69415;BMP280;56608;43.530;-5.652;2023-04-25T00:13:23;101370.66;;;18.45
69415;BMP280;56608;43.530;-5.652;2023-04-25T00:14:23;101382.28;;;18.46
69415;BMP280;56608;43.530;-5.652;2023-04-25T00:15:23;101372.63;;;18.45
69415;BMP280;56608;43.530;-5.652;2023-04-25T00:16:24;101376.28;;;18.42
69415;BMP280;56608;43.530;-5.652;2023-04-25T00:17:24;101369.63;;;18.43
69415;BMP280;56608;43.530;-5.652;2023-04-25T00:18:25;101374.44;;;18.33
69415;BMP280;56608;43.530;-5.652;2023-04-25T00:19:25;101366.53;;;18.35
69415;BMP280;56608;43.530;-5.652;2023-04-25T00:20:28;101367.78;;;18.34
69415;BMP280;56608;43.530;-5.652;2023-04-25T00:21:28;101361.09;;;18.35
69415;BMP280;56608;43.530;-5.652;2023-04-25T00:22:29;101371.34;;;18.26
69415;BMP280;56608;43.530;-5.652;2023-04-25T00:23:29;101364.12;;;18.23
69415;BMP280;56608;43.530;-5.652;2023-04-25T00:24:29;101366.09;;;18.22
69415;BMP280;56608;43.530;-5.652;2023-04-25T00:25:30;101359.44;;;18.23
69415;BMP280;56608;43.530;-5.652;2023-04-25T00:26:30;101358.50;;;18.26
69415;BMP280;56608;43.530;-5.652;2023-04-25T00:27:30;101359.16;;;18.21
69415;BMP280;56608;43.530;-5.652;2023-04-25T00:28:31;101362.63;;;18.22
69415;BMP280;56608;43.530;-5.652;2023-04-25T00:29:31;101358.22;;;18.24
69415;BMP280;56608;43.530;-5.652;2023-04-25T00:30:31;101353.91;;;18.18
69415;BMP280;56608;43.530;-5.652;2023-04-25T00:31:32;101358.56;;;18.17
69415;BMP280;56608;43.530;-5.652;2023-04-25T00:32:32;101352.31;;;18.11
69415;BMP280;56608;43.530;-5.652;2023-04-25T00:33:32;101348.19;;;18.16
69415;BMP280;56608;43.530;-5.652;2023-04-25T00:34:32;101351.97;;;18.18
69415;BMP280;56608;43.530;-5.652;2023-04-25T00:35:33;101350.00;;;18.19
69415;BMP280;56608;43.530;-5.652;2023-04-25T00:36:33;101351.63;;;18.16
69415;BMP280;56608;43.530;-5.652;2023-04-25T00:37:34;101348.91;;;18.16
69415;BMP280;56608;43.530;-5.652;2023-04-25T00:38:35;101343.59;;;18.22
69415;BMP280;56608;43.530;-5.652;2023-04-25T00:39:35;101346.50;;;18.18
69415;BMP280;56608;43.530;-5.652;2023-04-25T00:40:36;101344.97;;;18.17
69415;BMP280;56608;43.530;-5.652;2023-04-25T00:41:36;101342.25;;;18.17
69415;BMP280;56608;43.530;-5.652;2023-04-25T00:42:37;101347.25;;;18.19
69415;BMP280;56608;43.530;-5.652;2023-04-25T00:43:37;101344.09;;;18.20
69415;BMP280;56608;43.530;-5.652;2023-04-25T00:44:38;101342.09;;;18.21
69415;BMP280;56608;43.530;-5.652;2023-04-25T00:45:39;101340.12;;;18.21
69415;BMP280;56608;43.530;-5.652;2023-04-25T00:46:40;101340.88;;;18.22
69415;BMP280;56608;43.530;-5.652;2023-04-25T00:47:41;101343.88;;;18.24
69415;BMP280;56608;43.530;-5.652;2023-04-25T00:48:41;101335.25;;;18.25
69415;BMP280;56608;43.530;-5.652;2023-04-25T00:49:42;101340.31;;;18.18
69415;BMP280;56608;43.530;-5.652;2023-04-25T00:50:43;101345.19;;;18.14
69415;BMP280;56608;43.530;-5.652;2023-04-25T00:51:44;101338.44;;;18.09
69415;BMP280;56608;43.530;-5.652;2023-04-25T00:52:45;101332.06;;;18.12
69415;BMP280;56608;43.530;-5.652;2023-04-25T00:53:45;101336.81;;;18.17
69415;BMP280;56608;43.530;-5.652;2023-04-25T00:54:46;101333.94;;;18.21
69415;BMP280;56608;43.530;-5.652;2023-04-25T00:55:47;101333.47;;;18.22
69415;BMP280;56608;43.530;-5.652;2023-04-25T00:56:47;101334.50;;;18.25
69415;BMP280;56608;43.530;-5.652;2023-04-25T00:57:48;101329.25;;;18.21
69415;BMP280;56608;43.530;-5.652;2023-04-25T00:58:49;101328.50;;;18.21
69415;BMP280;56608;43.530;-5.652;2023-04-25T00:59:49;101334.09;;;18.17
69415;BMP280;56608;43.530;-5.652;2023-04-25T01:00:51;101330.47;;;18.20
69415;BMP280;56608;43.530;-5.652;2023-04-25T01:01:52;101331.97;;;18.21
69415;BMP280;56608;43.530;-5.652;2023-04-25T01:02:52;101324.09;;;18.23
69415;BMP280;56608;43.530;-5.652;2023-04-25T01:03:53;101327.09;;;18.25
69415;BMP280;56608;43.530;-5.652;2023-04-25T01:04:53;101324.38;;;18.25
69415;BMP280;56608;43.530;-5.652;2023-04-25T01:05:54;101326.81;;;18.23
69415;BMP280;56608;43.530;-5.652;2023-04-25T01:06:54;101324.44;;;18.16
69415;BMP280;56608;43.530;-5.652;2023-04-25T01:07:55;101325.88;;;18.12
69415;BMP280;56608;43.530;-5.652;2023-04-25T01:08:55;101322.13;;;18.09
69415;BMP280;56608;43.530;-5.652;2023-04-25T01:09:56;101324.31;;;18.05
69415;BMP280;56608;43.530;-5.652;2023-04-25T01:10:56;101318.13;;;18.04
69415;BMP280;56608;43.530;-5.652;2023-04-25T01:11:57;101317.06;;;18.02
69415;BMP280;56608;43.530;-5.652;2023-04-25T01:12:57;101320.84;;;18.04
69415;BMP280;56608;43.530;-5.652;2023-04-25T01:13:58;101322.72;;;17.98
69415;BMP280;56608;43.530;-5.652;2023-04-25T01:14:58;101316.53;;;17.98
69415;BMP280;56608;43.530;-5.652;2023-04-25T01:15:59;101320.28;;;18.00
69415;BMP280;56608;43.530;-5.652;2023-04-25T01:16:59;101316.91;;;18.05
69415;BMP280;56608;43.530;-5.652;2023-04-25T01:17:59;101320.91;;;18.10
69415;BMP280;56608;43.530;-5.652;2023-04-25T01:19:00;101314.22;;;18.11
69415;BMP280;56608;43.530;-5.652;2023-04-25T01:20:04;101319.13;;;18.07
69415;BMP280;56608;43.530;-5.652;2023-04-25T01:21:11;101308.25;;;18.07
69415;BMP280;56608;43.530;-5.652;2023-04-25T01:22:12;101313.22;;;18.08
69415;BMP280;56608;43.530;-5.652;2023-04-25T01:23:14;101308.25;;;18.07
69415;BMP280;56608;43.530;-5.652;2023-04-25T01:24:14;101311.25;;;18.09
69415;BMP280;56608;43.530;-5.652;2023-04-25T01:25:15;101310.97;;;18.07
69415;BMP280;56608;43.530;-5.652;2023-04-25T01:26:15;101308.75;;;18.05
69415;BMP280;56608;43.530;-5.652;2023-04-25T01:27:16;101319.88;;;18.07
69415;BMP280;56608;43.530;-5.652;2023-04-25T01:28:16;101312.22;;;18.06
69415;BMP280;56608;43.530;-5.652;2023-04-25T01:29:17;101320.63;;;18.08
69415;BMP280;56608;43.530;-5.652;2023-04-25T01:30:17;101318.37;;;18.06
69415;BMP280;56608;43.530;-5.652;2023-04-25T01:31:18;101304.06;;;18.06
69415;BMP280;56608;43.530;-5.652;2023-04-25T01:32:19;101304.06;;;18.06
69415;BMP280;56608;43.530;-5.652;2023-04-25T01:33:20;101303.56;;;18.07
69415;BMP280;56608;43.530;-5.652;2023-04-25T01:34:21;101298.88;;;18.08
69415;BMP280;56608;43.530;-5.652;2023-04-25T01:35:21;101302.63;;;18.11
69415;BMP280;56608;43.530;-5.652;2023-04-25T01:36:23;101293.53;;;18.14
69415;BMP280;56608;43.530;-5.652;2023-04-25T01:37:24;101290.34;;;18.15
69415;BMP280;56608;43.530;-5.652;2023-04-25T01:38:24;101293.06;;;18.15
69415;BMP280;56608;43.530;-5.652;2023-04-25T01:39:25;101295.78;;;18.15
69415;BMP280;56608;43.530;-5.652;2023-04-25T01:40:26;101291.81;;;18.16
69415;BMP280;56608;43.530;-5.652;2023-04-25T01:41:27;101293.06;;;18.15
69415;BMP280;56608;43.530;-5.652;2023-04-25T01:42:27;101291.25;;;18.12
69415;BMP280;56608;43.530;-5.652;2023-04-25T01:43:28;101290.03;;;18.13
69415;BMP280;56608;43.530;-5.652;2023-04-25T01:44:28;101287.63;;;18.15
69415;BMP280;56608;43.530;-5.652;2023-04-25T01:45:29;101290.34;;;18.15
69415;BMP280;56608;43.530;-5.652;2023-04-25T01:46:29;101285.66;;;18.16
69415;BMP280;56608;43.530;-5.652;2023-04-25T01:47:30;101289.09;;;18.16
69415;BMP280;56608;43.530;-5.652;2023-04-25T01:48:31;101290.59;;;18.17
69415;BMP280;56608;43.530;-5.652;2023-04-25T01:49:31;101289.28;;;18.13
69415;BMP280;56608;43.530;-5.652;2023-04-25T01:50:31;101289.28;;;18.13
69415;BMP280;56608;43.530;-5.652;2023-04-25T01:51:31;101289.28;;;18.13
69415;BMP280;56608;43.530;-5.652;2023-04-25T01:52:32;101293.97;;;18.12
69415;BMP280;56608;43.530;-5.652;2023-04-25T01:53:32;101291.75;;;18.11
69415;BMP280;56608;43.530;-5.652;2023-04-25T01:54:33;101293.72;;;18.10
69415;BMP280;56608;43.530;-5.652;2023-04-25T01:55:34;101289.50;;;18.09
69415;BMP280;56608;43.530;-5.652;2023-04-25T01:56:36;101285.56;;;18.10
69415;BMP280;56608;43.530;-5.652;2023-04-25T01:57:36;101287.03;;;18.11
69415;BMP280;56608;43.530;-5.652;2023-04-25T01:58:37;101284.81;;;18.10
69415;BMP280;56608;43.530;-5.652;2023-04-25T01:59:37;101293.72;;;18.10
69415;BMP280;56608;43.530;-5.652;2023-04-25T02:00:38;101290.03;;;18.13
69415;BMP280;56608;43.530;-5.652;2023-04-25T02:01:39;101286.12;;;18.14
69415;BMP280;56608;43.530;-5.652;2023-04-25T02:02:39;101284.59;;;18.13
69415;BMP280;56608;43.530;-5.652;2023-04-25T02:03:40;101274.94;;;18.12
69415;BMP280;56608;43.530;-5.652;2023-04-25T02:04:40;101275.22;;;18.14
69415;BMP280;56608;43.530;-5.652;2023-04-25T02:05:40;101284.91;;;18.15
69415;BMP280;56608;43.530;-5.652;2023-04-25T02:06:41;101290.59;;;18.17
69415;BMP280;56608;43.530;-5.652;2023-04-25T02:07:41;101286.69;;;18.18
69415;BMP280;56608;43.530;-5.652;2023-04-25T02:08:41;101284.97;;;18.21
69415;BMP280;56608;43.530;-5.652;2023-04-25T02:09:42;101283.50;;;18.20
69415;BMP280;56608;43.530;-5.652;2023-04-25T02:10:42;101286.22;;;18.20
69415;BMP280;56608;43.530;-5.652;2023-04-25T02:11:43;101284.25;;;18.20
69415;BMP280;56608;43.530;-5.652;2023-04-25T02:12:43;101283.50;;;18.20
69415;BMP280;56608;43.530;-5.652;2023-04-25T02:13:44;101274.84;;;18.21
69415;BMP280;56608;43.530;-5.652;2023-04-25T02:14:44;101281.78;;;18.22
69415;BMP280;56608;43.530;-5.652;2023-04-25T02:15:44;101280.56;;;18.23
69415;BMP280;56608;43.530;-5.652;2023-04-25T02:16:45;101275.13;;;18.23
69415;BMP280;56608;43.530;-5.652;2023-04-25T02:17:46;101268.66;;;18.21
69415;BMP280;56608;43.530;-5.652;2023-04-25T02:18:47;101272.34;;;18.18
69415;BMP280;56608;43.530;-5.652;2023-04-25T02:19:47;101267.66;;;18.18
69415;BMP280;56608;43.530;-5.652;2023-04-25T02:20:47;101260.69;;;18.17
69415;BMP280;56608;43.530;-5.652;2023-04-25T02:21:48;101258.44;;;18.16
69415;BMP280;56608;43.530;-5.652;2023-04-25T02:22:48;101263.59;;;18.14
69415;BMP280;56608;43.530;-5.652;2023-04-25T02:23:48;101260.87;;;18.14
69415;BMP280;56608;43.530;-5.652;2023-04-25T02:24:52;101267.06;;;18.14
69415;BMP280;56608;43.530;-5.652;2023-04-25T02:25:53;101266.78;;;18.12
69415;BMP280;56608;43.530;-5.652;2023-04-25T02:26:55;101260.13;;;18.13
69415;BMP280;56608;43.530;-5.652;2023-04-25T02:27:56;101269.78;;;18.14
69415;BMP280;56608;43.530;-5.652;2023-04-25T02:28:56;101264.34;;;18.14
69415;BMP280;56608;43.530;-5.652;2023-04-25T02:29:57;101271.28;;;18.15
69415;BMP280;56608;43.530;-5.652;2023-04-25T02:30:57;101265.84;;;18.15
69415;BMP280;56608;43.530;-5.652;2023-04-25T02:31:57;101261.34;;;18.12
69415;BMP280;56608;43.530;-5.652;2023-04-25T02:32:58;101269.25;;;18.10
69415;BMP280;56608;43.530;-5.652;2023-04-25T02:33:58;101266.25;;;18.08
69415;BMP280;56608;43.530;-5.652;2023-04-25T02:34:58;101268.41;;;18.04
69415;BMP280;56608;43.530;-5.652;2023-04-25T02:36:03;101271.44;;;18.06
69415;BMP280;56608;43.530;-5.652;2023-04-25T02:37:04;101271.13;;;18.04
69415;BMP280;56608;43.530;-5.652;2023-04-25T02:38:04;101274.16;;;18.06
69415;BMP280;56608;43.530;-5.652;2023-04-25T02:39:04;101271.13;;;18.04
69415;BMP280;56608;43.530;-5.652;2023-04-25T02:40:05;101279.75;;;18.02
69415;BMP280;56608;43.530;-5.652;2023-04-25T02:41:05;101270.59;;;18.00
69415;BMP280;56608;43.530;-5.652;2023-04-25T02:42:06;101273.56;;;18.02
69415;BMP280;56608;43.530;-5.652;2023-04-25T02:43:06;101279.00;;;18.02
69415;BMP280;56608;43.530;-5.652;2023-04-25T02:44:07;101275.28;;;17.99
69415;BMP280;56608;43.530;-5.652;2023-04-25T02:45:07;101273.78;;;17.98
69415;BMP280;56608;43.530;-5.652;2023-04-25T02:46:08;101275.28;;;17.99
69415;BMP280;56608;43.530;-5.652;2023-04-25T02:47:08;101266.38;;;17.99
69415;BMP280;56608;43.530;-5.652;2023-04-25T02:48:08;101263.66;;;17.99
69415;BMP280;56608;43.530;-5.652;2023-04-25T02:49:09;101264.88;;;17.98
69415;BMP280;56608;43.530;-5.652;2023-04-25T02:50:09;101268.34;;;17.98
69415;BMP280;56608;43.530;-5.652;2023-04-25T02:51:10;101269.09;;;17.99
69415;BMP280;56608;43.530;-5.652;2023-04-25T02:52:10;101259.44;;;17.98
69415;BMP280;56608;43.530;-5.652;2023-04-25T02:53:11;101266.38;;;17.99
69415;BMP280;56608;43.530;-5.652;2023-04-25T02:54:11;101268.34;;;17.98
69415;BMP280;56608;43.530;-5.652;2023-04-25T02:55:12;101264.63;;;17.96
69415;BMP280;56608;43.530;-5.652;2023-04-25T02:56:12;101267.03;;;17.94
69415;BMP280;56608;43.530;-5.652;2023-04-25T02:57:13;101265.38;;;17.96
69415;BMP280;56608;43.530;-5.652;2023-04-25T02:58:13;101263.09;;;17.95
69415;BMP280;56608;43.530;-5.652;2023-04-25T02:59:14;101256.63;;;17.92
69415;BMP280;56608;43.530;-5.652;2023-04-25T03:00:15;101260.75;;;17.88
69415;BMP280;56608;43.530;-5.652;2023-04-25T03:01:15;101266.19;;;17.88
69415;BMP280;56608;43.530;-5.652;2023-04-25T03:02:15;101266.94;;;17.88
69415;BMP280;56608;43.530;-5.652;2023-04-25T03:03:16;101264.50;;;17.90
69415;BMP280;56608;43.530;-5.652;2023-04-25T03:04:17;101261.34;;;17.92
69415;BMP280;56608;43.530;-5.652;2023-04-25T03:05:19;101260.84;;;17.93
69415;BMP280;56608;43.530;-5.652;2023-04-25T03:06:19;101250.72;;;17.94
69415;BMP280;56608;43.530;-5.652;2023-04-25T03:07:19;101254.66;;;17.93
69415;BMP280;56608;43.530;-5.652;2023-04-25T03:08:20;101253.19;;;17.92
69415;BMP280;56608;43.530;-5.652;2023-04-25T03:09:20;101250.91;;;17.90
69415;BMP280;56608;43.530;-5.652;2023-04-25T03:10:21;101246.22;;;17.91
69415;BMP280;56608;43.530;-5.652;2023-04-25T03:11:21;101248.94;;;17.91
69415;BMP280;56608;43.530;-5.652;2023-04-25T03:12:21;101260.28;;;17.89
69415;BMP280;56608;43.530;-5.652;2023-04-25T03:13:22;101260.28;;;17.89
69415;BMP280;56608;43.530;-5.652;2023-04-25T03:14:22;101257.09;;;17.91
69415;BMP280;56608;43.530;-5.652;2023-04-25T03:15:22;101251.19;;;17.92
69415;BMP280;56608;43.530;-5.652;2023-04-25T03:16:23;101253.34;;;17.88
69415;BMP280;56608;43.530;-5.652;2023-04-25T03:17:23;101245.09;;;17.83
69415;BMP280;56608;43.530;-5.652;2023-04-25T03:18:24;101245.09;;;17.83
69415;BMP280;56608;43.530;-5.652;2023-04-25T03:19:24;101244.44;;;17.88
69415;BMP280;56608;43.530;-5.652;2023-04-25T03:20:24;101244.72;;;17.90
69415;BMP280;56608;43.530;-5.652;2023-04-25T03:21:25;101244.44;;;17.88
69415;BMP280;56608;43.530;-5.652;2023-04-25T03:22:26;101251.78;;;17.82
69415;BMP280;56608;43.530;-5.652;2023-04-25T03:23:26;101257.13;;;17.76
69415;BMP280;56608;43.530;-5.652;2023-04-25T03:24:27;101252.16;;;17.75
69415;BMP280;56608;43.530;-5.652;2023-04-25T03:25:27;101254.88;;;17.75
69415;BMP280;56608;43.530;-5.652;2023-04-25T03:26:27;101240.06;;;17.76
69415;BMP280;56608;43.530;-5.652;2023-04-25T03:27:28;101244.00;;;17.75
69415;BMP280;56608;43.530;-5.652;2023-04-25T03:28:28;101247.75;;;17.77
69415;BMP280;56608;43.530;-5.652;2023-04-25T03:29:28;101244.75;;;17.75
69415;BMP280;56608;43.530;-5.652;2023-04-25T03:30:29;101243.53;;;17.76
69415;BMP280;56608;43.530;-5.652;2023-04-25T03:31:29;101242.50;;;17.74
69415;BMP280;56608;43.530;-5.652;2023-04-25T03:32:30;101235.56;;;17.73
69415;BMP280;56608;43.530;-5.652;2023-04-25T03:33:30;101238.56;;;17.75
69415;BMP280;56608;43.530;-5.652;2023-04-25T03:34:31;101229.00;;;17.79
69415;BMP280;56608;43.530;-5.652;2023-04-25T03:35:31;101235.19;;;17.80
69415;BMP280;56608;43.530;-5.652;2023-04-25T03:36:31;101237.16;;;17.79
69415;BMP280;56608;43.530;-5.652;2023-04-25T03:37:32;101243.06;;;17.78
69415;BMP280;56608;43.530;-5.652;2023-04-25T03:38:32;101242.34;;;17.77
69415;BMP280;56608;43.530;-5.652;2023-04-25T03:39:33;101245.50;;;17.76
69415;BMP280;56608;43.530;-5.652;2023-04-25T03:40:33;101244.00;;;17.75
69415;BMP280;56608;43.530;-5.652;2023-04-25T03:41:34;101232.94;;;17.78
69415;BMP280;56608;43.530;-5.652;2023-04-25T03:42:34;101232.47;;;17.80
69415;BMP280;56608;43.530;-5.652;2023-04-25T03:43:34;101236.22;;;17.82
69415;BMP280;56608;43.530;-5.652;2023-04-25T03:44:35;101239.41;;;17.81
69415;BMP280;56608;43.530;-5.652;2023-04-25T03:45:35;101243.53;;;17.76
69415;BMP280;56608;43.530;-5.652;2023-04-25T03:46:35;101246.72;;;17.75
69415;BMP280;56608;43.530;-5.652;2023-04-25T03:47:35;101237.81;;;17.74
69415;BMP280;56608;43.530;-5.652;2023-04-25T03:48:36;101247.84;;;17.68
69415;BMP280;56608;43.530;-5.652;2023-04-25T03:49:36;101244.31;;;17.62
69415;BMP280;56608;43.530;-5.652;2023-04-25T03:50:36;101244.31;;;17.62
69415;BMP280;56608;43.530;-5.652;2023-04-25T03:51:37;101245.06;;;17.62
69415;BMP280;56608;43.530;-5.652;2023-04-25T03:52:37;101246.81;;;17.65
69415;BMP280;56608;43.530;-5.652;2023-04-25T03:53:37;101242.16;;;17.66
69415;BMP280;56608;43.530;-5.652;2023-04-25T03:54:38;101253.94;;;17.63
69415;BMP280;56608;43.530;-5.652;2023-04-25T03:55:38;101250.19;;;17.60
69415;BMP280;56608;43.530;-5.652;2023-04-25T03:56:38;101252.91;;;17.60
69415;BMP280;56608;43.530;-5.652;2023-04-25T03:57:39;101249.09;;;17.52
69415;BMP280;56608;43.530;-5.652;2023-04-25T03:58:39;101239.69;;;17.53
69415;BMP280;56608;43.530;-5.652;2023-04-25T03:59:39;101239.16;;;17.49
69415;BMP280;56608;43.530;-5.652;2023-04-25T04:00:40;101244.41;;;17.53
69415;BMP280;56608;43.530;-5.652;2023-04-25T04:01:40;101234.84;;;17.57
69415;BMP280;56608;43.530;-5.652;2023-04-25T04:02:40;101240.84;;;17.61
69415;BMP280;56608;43.530;-5.652;2023-04-25T04:03:41;101242.41;;;17.53
69415;BMP280;56608;43.530;-5.652;2023-04-25T04:04:41;101234.28;;;17.53
69415;BMP280;56608;43.530;-5.652;2023-04-25T04:05:44;101246.09;;;17.50
69415;BMP280;56608;43.530;-5.652;2023-04-25T04:06:45;101247.37;;;17.55
69415;BMP280;56608;43.530;-5.652;2023-04-25T04:07:45;101250.03;;;17.49
69415;BMP280;56608;43.530;-5.652;2023-04-25T04:08:46;101247.59;;;17.51
69415;BMP280;56608;43.530;-5.652;2023-04-25T04:09:46;101250.31;;;17.51
69415;BMP280;56608;43.530;-5.652;2023-04-25T04:10:47;101257.41;;;17.49
69415;BMP280;56608;43.530;-5.652;2023-04-25T04:11:47;101247.03;;;17.47
69415;BMP280;56608;43.530;-5.652;2023-04-25T04:12:47;101252.75;;;17.49
69415;BMP280;56608;43.530;-5.652;2023-04-25T04:13:48;101255.44;;;17.49
69415;BMP280;56608;43.530;-5.652;2023-04-25T04:14:48;101251.06;;;17.52
69415;BMP280;56608;43.530;-5.652;2023-04-25T04:15:48;101247.84;;;17.53
69415;BMP280;56608;43.530;-5.652;2023-04-25T04:16:48;101245.88;;;17.54
69415;BMP280;56608;43.530;-5.652;2023-04-25T04:17:50;101250.56;;;17.53
69415;BMP280;56608;43.530;-5.652;2023-04-25T04:18:51;101242.16;;;17.51
69415;BMP280;56608;43.530;-5.652;2023-04-25T04:19:51;101243.66;;;17.52
69415;BMP280;56608;43.530;-5.652;2023-04-25T04:20:51;101240.44;;;17.54
69415;BMP280;56608;43.530;-5.652;2023-04-25T04:21:52;101244.22;;;17.56
69415;BMP280;56608;43.530;-5.652;2023-04-25T04:22:52;101244.22;;;17.56
69415;BMP280;56608;43.530;-5.652;2023-04-25T04:23:52;101246.63;;;17.54
69415;BMP280;56608;43.530;-5.652;2023-04-25T04:24:54;101243.16;;;17.54
69415;BMP280;56608;43.530;-5.652;2023-04-25T04:25:54;101243.66;;;17.52
69415;BMP280;56608;43.530;-5.652;2023-04-25T04:26:56;101245.12;;;17.53
69415;BMP280;56608;43.530;-5.652;2023-04-25T04:27:56;101242.91;;;17.52
69415;BMP280;56608;43.530;-5.652;2023-04-25T04:28:57;101240.66;;;17.50
69415;BMP280;56608;43.530;-5.652;2023-04-25T04:29:59;101240.66;;;17.50
69415;BMP280;56608;43.530;-5.652;2023-04-25T04:31:00;101245.62;;;17.52
69415;BMP280;56608;43.530;-5.652;2023-04-25T04:32:01;101242.16;;;17.51
69415;BMP280;56608;43.530;-5.652;2023-04-25T04:33:01;101247.13;;;17.53
69415;BMP280;56608;43.530;-5.652;2023-04-25T04:34:02;101240.28;;;17.57
69415;BMP280;56608;43.530;-5.652;2023-04-25T04:35:03;101244.75;;;17.60
69415;BMP280;56608;43.530;-5.652;2023-04-25T04:36:04;101231.62;;;17.59
69415;BMP280;56608;43.530;-5.652;2023-04-25T04:37:04;101235.41;;;17.61
69415;BMP280;56608;43.530;-5.652;2023-04-25T04:38:05;101232.38;;;17.59
69415;BMP280;56608;43.530;-5.652;2023-04-25T04:39:06;101231.62;;;17.59
69415;BMP280;56608;43.530;-5.652;2023-04-25T04:40:06;101236.16;;;17.62
69415;BMP280;56608;43.530;-5.652;2023-04-25T04:41:07;101234.66;;;17.61
69415;BMP280;56608;43.530;-5.652;2023-04-25T04:42:07;101229.97;;;17.61
69415;BMP280;56608;43.530;-5.652;2023-04-25T04:43:08;101236.63;;;17.60
69415;BMP280;56608;43.530;-5.652;2023-04-25T04:44:10;101231.62;;;17.59
69415;BMP280;56608;43.530;-5.652;2023-04-25T04:45:10;101237.81;;;17.59
69415;BMP280;56608;43.530;-5.652;2023-04-25T04:46:11;101236.31;;;17.58
69415;BMP280;56608;43.530;-5.652;2023-04-25T04:47:12;101236.31;;;17.58
69415;BMP280;56608;43.530;-5.652;2023-04-25T04:48:14;101234.66;;;17.61
69415;BMP280;56608;43.530;-5.652;2023-04-25T04:49:14;101228.47;;;17.60
69415;BMP280;56608;43.530;-5.652;2023-04-25T04:50:15;101236.31;;;17.58
69415;BMP280;56608;43.530;-5.652;2023-04-25T04:51:16;101230.88;;;17.58
69415;BMP280;56608;43.530;-5.652;2023-04-25T04:52:16;101232.59;;;17.56
69415;BMP280;56608;43.530;-5.652;2023-04-25T04:53:16;101234.84;;;17.57
69415;BMP280;56608;43.530;-5.652;2023-04-25T04:54:17;101231.84;;;17.55
69415;BMP280;56608;43.530;-5.652;2023-04-25T04:55:17;101230.84;;;17.53
69415;BMP280;56608;43.530;-5.652;2023-04-25T04:56:17;101231.00;;;17.49
69415;BMP280;56608;43.530;-5.652;2023-04-25T04:57:20;101229.25;;;17.46
69415;BMP280;56608;43.530;-5.652;2023-04-25T04:58:21;101231.97;;;17.46
69415;BMP280;56608;43.530;-5.652;2023-04-25T04:59:21;101238.88;;;17.47
69415;BMP280;56608;43.530;-5.652;2023-04-25T05:00:21;101244.41;;;17.38
69415;BMP280;56608;43.530;-5.652;2023-04-25T05:01:22;101240.44;;;17.39
69415;BMP280;56608;43.530;-5.652;2023-04-25T05:02:22;101239.56;;;17.42
69415;BMP280;56608;43.530;-5.652;2023-04-25T05:03:22;101232.63;;;17.41
69415;BMP280;56608;43.530;-5.652;2023-04-25T05:04:23;101240.75;;;17.41
69415;BMP280;56608;43.530;-5.652;2023-04-25T05:05:23;101243.16;;;17.39
69415;BMP280;56608;43.530;-5.652;2023-04-25T05:06:24;101242.28;;;17.42
69415;BMP280;56608;43.530;-5.652;2023-04-25T05:07:24;101243.75;;;17.43
69415;BMP280;56608;43.530;-5.652;2023-04-25T05:08:24;101245.72;;;17.43
69415;BMP280;56608;43.530;-5.652;2023-04-25T05:09:26;101241.03;;;17.43
69415;BMP280;56608;43.530;-5.652;2023-04-25T05:10:26;101252.19;;;17.45
69415;BMP280;56608;43.530;-5.652;2023-04-25T05:11:27;101253.13;;;17.42
69415;BMP280;56608;43.530;-5.652;2023-04-25T05:12:27;101257.31;;;17.43
69415;BMP280;56608;43.530;-5.652;2023-04-25T05:13:27;101254.91;;;17.45
69415;BMP280;56608;43.530;-5.652;2023-04-25T05:14:28;101250.97;;;17.46
69415;BMP280;56608;43.530;-5.652;2023-04-25T05:15:28;101249.47;;;17.45
69415;BMP280;56608;43.530;-5.652;2023-04-25T05:16:28;101247.78;;;17.48
69415;BMP280;56608;43.530;-5.652;2023-04-25T05:17:28;101245.53;;;17.46
69415;BMP280;56608;43.530;-5.652;2023-04-25T05:18:29;101252.66;;;17.44
69415;BMP280;56608;43.530;-5.652;2023-04-25T05:19:30;101248.91;;;17.41
69415;BMP280;56608;43.530;-5.652;2023-04-25T05:20:30;101249.84;;;17.38
69415;BMP280;56608;43.530;-5.652;2023-04-25T05:21:30;101255.25;;;17.38
69415;BMP280;56608;43.530;-5.652;2023-04-25T05:22:31;101256.94;;;17.36
69415;BMP280;56608;43.530;-5.652;2023-04-25T05:23:32;101249.25;;;17.34
69415;BMP280;56608;43.530;-5.652;2023-04-25T05:24:32;101253.22;;;17.33
69415;BMP280;56608;43.530;-5.652;2023-04-25T05:25:33;101251.88;;;17.29
69415;BMP280;56608;43.530;-5.652;2023-04-25T05:26:33;101254.88;;;17.31
69415;BMP280;56608;43.530;-5.652;2023-04-25T05:27:33;101252.16;;;17.31
69415;BMP280;56608;43.530;-5.652;2023-04-25T05:28:34;101250.56;;;17.24
69415;BMP280;56608;43.530;-5.652;2023-04-25T05:29:34;101252.25;;;17.21
69415;BMP280;56608;43.530;-5.652;2023-04-25T05:30:35;101247.59;;;17.22
69415;BMP280;56608;43.530;-5.652;2023-04-25T05:31:36;101250.56;;;17.24
69415;BMP280;56608;43.530;-5.652;2023-04-25T05:32:36;101256.56;;;17.28
69415;BMP280;56608;43.530;-5.652;2023-04-25T05:33:36;101250.94;;;17.32
69415;BMP280;56608;43.530;-5.652;2023-04-25T05:34:37;101257.31;;;17.29
69415;BMP280;56608;43.530;-5.652;2023-04-25T05:35:37;101257.88;;;17.33
69415;BMP280;56608;43.530;-5.652;2023-04-25T05:36:37;101255.62;;;17.31
69415;BMP280;56608;43.530;-5.652;2023-04-25T05:37:38;101264.53;;;17.32
69415;BMP280;56608;43.530;-5.652;2023-04-25T05:38:38;101255.81;;;17.28